Portada
METAR-TAF:

METAR-TAF

Aeropuertos :

Nebraska City Municipal Airport

Nebraska City, Nebraska, Estados Unidos

latitud: 40-36N, longitud: 095-51W, altitud: 354 m

Observación

El informe se hizo hace 21 minutos, a las 07:55 UTC
Viento calma
Temperatura 15°C
Humedad 100%
Presión 1024 hPa
Visibilidad: 16.1 km
Cielo nuboso a una altura de 8500 ft
Cielo cubierto a una altura de 11000 ft

METAR: KAFK 310755Z AUTO 00000KT 10SM BKN085 OVC110 15/15 A3024 RMK AO2 T01460145

Hora: 03:16 (08:16 UTC)


TAF: falta

Observaciones y pronósticos meteorológicos de más de 4000 aeropuertos (mensajes METAR y TAF).

Los puntos amarillos y rojos representan las estaciones disponibles.

Ponga el ratón en el punto deseado para ver el nombre de la estación.

Haga clic para ver las observaciones y los pronósticos meteorológicos.

Para cambiar el mapa : haga clic en los botones verdes con una cruz de color negro para hacer un zoom, en el botón verde con un guión para alejar o en las flechas verdes para mapas adyacentes.


METAR-TAF: